createdAt,value
2023-08-18T00:05:58.101Z,26.20
2023-08-18T00:17:58.607Z,23.20
2023-08-18T00:29:59.022Z,26.00
2023-08-18T00:41:59.468Z,23.30
2023-08-18T00:53:59.963Z,22.90
2023-08-18T01:06:00.391Z,29.20
2023-08-18T01:18:00.925Z,30.30
2023-08-18T01:30:02.633Z,28.60
2023-08-18T01:42:01.731Z,28.10
2023-08-18T01:54:02.220Z,25.70
2023-08-18T02:06:02.635Z,28.00
2023-08-18T02:18:03.269Z,24.60
2023-08-18T02:30:03.613Z,28.70
2023-08-18T02:42:04.074Z,23.80
2023-08-18T02:54:04.480Z,29.00
2023-08-18T03:06:04.920Z,26.50
2023-08-18T03:18:05.487Z,28.90
2023-08-18T03:30:05.858Z,30.50
2023-08-18T03:42:06.303Z,28.30
2023-08-18T03:54:06.815Z,27.10
2023-08-18T04:06:07.263Z,35.60
2023-08-18T04:18:07.708Z,28.30
2023-08-18T04:30:08.097Z,24.60
2023-08-18T04:42:08.597Z,28.20
2023-08-18T04:54:09.067Z,25.40
2023-08-18T05:06:09.610Z,25.20
2023-08-18T05:18:09.937Z,24.70
2023-08-18T05:30:10.379Z,21.80
2023-08-18T05:42:10.853Z,21.60
2023-08-18T05:54:12.760Z,18.50
2023-08-18T06:06:11.756Z,13.50
2023-08-18T06:18:12.189Z,17.20
2023-08-18T06:30:12.687Z,19.30
2023-08-18T06:42:13.145Z,17.10
2023-08-18T06:54:13.601Z,14.20
2023-08-18T07:06:14.007Z,14.30
2023-08-18T07:18:14.471Z,15.20
2023-08-18T07:30:14.961Z,14.50
2023-08-18T07:42:15.432Z,12.50
2023-08-18T07:54:15.859Z,11.90
2023-08-18T08:06:16.321Z,11.80
2023-08-18T08:18:17.023Z,11.30
2023-08-18T08:30:30.334Z,11.60
2023-08-18T08:42:17.672Z,12.00
2023-08-18T08:54:18.139Z,9.90
2023-08-18T09:06:18.597Z,8.40
2023-08-18T09:18:19.178Z,10.60
2023-08-18T09:30:19.553Z,11.50
2023-08-18T09:42:19.996Z,11.60
2023-08-18T09:54:20.417Z,11.90
2023-08-18T10:06:20.862Z,9.70
2023-08-18T10:18:21.366Z,6.90
2023-08-18T10:30:21.776Z,7.40
2023-08-18T10:42:22.259Z,8.50
2023-08-18T10:54:22.671Z,7.90
2023-08-18T11:06:23.145Z,9.80
2023-08-18T11:18:23.648Z,10.30
2023-08-18T11:30:24.085Z,10.30
2023-08-18T11:42:24.506Z,8.90
2023-08-18T11:54:24.962Z,10.90
2023-08-18T12:06:25.455Z,8.80
2023-08-18T12:18:25.968Z,8.60
2023-08-18T12:30:26.336Z,8.40
2023-08-18T12:42:26.860Z,7.30
2023-08-18T12:54:27.252Z,7.30
2023-08-18T13:06:27.722Z,8.40
2023-08-18T13:18:28.176Z,7.40
2023-08-18T13:30:28.636Z,7.20
2023-08-18T13:42:29.353Z,8.10
2023-08-18T13:54:29.561Z,11.20
2023-08-18T14:06:30.013Z,6.80
2023-08-18T14:18:30.444Z,7.90
2023-08-18T14:30:30.958Z,5.30
2023-08-18T14:42:31.386Z,8.30
2023-08-18T14:54:31.880Z,8.70
2023-08-18T15:06:32.273Z,9.20
2023-08-18T15:18:32.789Z,10.90
2023-08-18T15:30:33.205Z,11.20
2023-08-18T15:42:33.662Z,15.30
2023-08-18T15:54:34.118Z,11.40
2023-08-18T16:06:34.614Z,11.10
2023-08-18T16:18:35.044Z,10.00
2023-08-18T16:30:35.548Z,10.70
2023-08-18T16:42:36.059Z,14.40
2023-08-18T16:54:36.410Z,11.70
2023-08-18T17:06:37.062Z,15.80
2023-08-18T17:18:37.305Z,13.50
2023-08-18T17:30:37.774Z,14.10
2023-08-18T17:42:38.222Z,12.60
2023-08-18T17:54:38.684Z,13.60
2023-08-18T18:06:39.183Z,15.70
2023-08-18T18:18:39.556Z,15.60
2023-08-18T18:30:40.048Z,18.20
2023-08-18T18:42:40.507Z,19.00
2023-08-18T18:54:40.953Z,17.60
2023-08-18T19:06:41.438Z,18.70
2023-08-18T19:18:41.840Z,22.30
2023-08-18T19:30:42.347Z,19.10
2023-08-18T19:42:42.755Z,20.30
2023-08-18T19:54:43.270Z,23.00
2023-08-18T20:06:43.744Z,23.30
2023-08-18T20:18:44.164Z,22.50
2023-08-18T20:30:44.753Z,23.40
2023-08-18T20:42:45.083Z,25.30
2023-08-18T20:54:45.648Z,22.90
2023-08-18T21:06:46.142Z,23.90
2023-08-18T21:18:46.443Z,25.60
2023-08-18T21:30:46.854Z,26.70
2023-08-18T21:42:47.429Z,34.80
2023-08-18T21:54:47.833Z,31.10
2023-08-18T22:06:48.236Z,26.90
2023-08-18T22:18:48.691Z,32.50
2023-08-18T22:30:49.192Z,28.00
2023-08-18T22:42:49.814Z,26.00
2023-08-18T22:54:50.266Z,26.90
2023-08-18T23:06:50.498Z,29.30
2023-08-18T23:18:50.969Z,31.60
2023-08-18T23:30:51.468Z,30.90
2023-08-18T23:42:51.857Z,31.80
2023-08-18T23:54:52.335Z,34.30
